sensor_id;sensor_type;location;lat;lon;timestamp;temperature;humidity
69031;DHT22;56083;48.774;8.942;2022-08-19T00:01:16;20.00;99.90
69031;DHT22;56083;48.774;8.942;2022-08-19T00:03:42;20.00;99.90
69031;DHT22;56083;48.774;8.942;2022-08-19T00:06:08;20.00;99.90
69031;DHT22;56083;48.774;8.942;2022-08-19T00:08:33;20.00;99.90
69031;DHT22;56083;48.774;8.942;2022-08-19T00:10:59;20.00;99.90
69031;DHT22;56083;48.774;8.942;2022-08-19T00:13:25;19.90;99.90
69031;DHT22;56083;48.774;8.942;2022-08-19T00:15:54;19.90;99.90
69031;DHT22;56083;48.774;8.942;2022-08-19T00:18:20;19.90;99.90
69031;DHT22;56083;48.774;8.942;2022-08-19T00:20:46;19.90;99.90
69031;DHT22;56083;48.774;8.942;2022-08-19T00:23:12;19.90;99.90
69031;DHT22;56083;48.774;8.942;2022-08-19T00:25:37;19.90;99.90
69031;DHT22;56083;48.774;8.942;2022-08-19T00:28:03;19.80;99.90
69031;DHT22;56083;48.774;8.942;2022-08-19T00:30:30;19.80;99.90
69031;DHT22;56083;48.774;8.942;2022-08-19T00:32:57;19.80;99.90
69031;DHT22;56083;48.774;8.942;2022-08-19T00:35:23;19.80;99.90
69031;DHT22;56083;48.774;8.942;2022-08-19T00:37:49;19.80;99.90
69031;DHT22;56083;48.774;8.942;2022-08-19T00:40:17;19.80;99.90
69031;DHT22;56083;48.774;8.942;2022-08-19T00:42:44;19.80;99.90
69031;DHT22;56083;48.774;8.942;2022-08-19T00:45:14;19.80;99.90
69031;DHT22;56083;48.774;8.942;2022-08-19T00:47:43;19.80;99.90
69031;DHT22;56083;48.774;8.942;2022-08-19T00:50:10;19.80;99.90
69031;DHT22;56083;48.774;8.942;2022-08-19T00:52:40;19.80;99.90
69031;DHT22;56083;48.774;8.942;2022-08-19T00:55:10;19.70;99.90
69031;DHT22;56083;48.774;8.942;2022-08-19T00:57:40;19.80;99.90
69031;DHT22;56083;48.774;8.942;2022-08-19T01:00:11;19.70;99.90
69031;DHT22;56083;48.774;8.942;2022-08-19T01:02:40;19.70;99.90
69031;DHT22;56083;48.774;8.942;2022-08-19T01:05:10;19.70;99.90
69031;DHT22;56083;48.774;8.942;2022-08-19T01:07:38;19.70;99.90
69031;DHT22;56083;48.774;8.942;2022-08-19T01:10:08;19.80;99.90
69031;DHT22;56083;48.774;8.942;2022-08-19T01:12:35;19.70;99.90
69031;DHT22;56083;48.774;8.942;2022-08-19T01:15:01;19.70;99.90
69031;DHT22;56083;48.774;8.942;2022-08-19T01:17:27;19.70;99.90
69031;DHT22;56083;48.774;8.942;2022-08-19T01:19:53;19.70;99.90
69031;DHT22;56083;48.774;8.942;2022-08-19T01:22:27;19.70;99.90
69031;DHT22;56083;48.774;8.942;2022-08-19T01:24:54;19.60;99.90
69031;DHT22;56083;48.774;8.942;2022-08-19T01:27:19;19.60;99.90
69031;DHT22;56083;48.774;8.942;2022-08-19T01:29:45;19.60;99.90
69031;DHT22;56083;48.774;8.942;2022-08-19T01:32:16;19.60;99.90
69031;DHT22;56083;48.774;8.942;2022-08-19T01:34:42;19.50;99.90
69031;DHT22;56083;48.774;8.942;2022-08-19T01:37:13;19.50;99.90
69031;DHT22;56083;48.774;8.942;2022-08-19T01:39:40;19.50;99.90
69031;DHT22;56083;48.774;8.942;2022-08-19T01:42:08;19.50;99.90
69031;DHT22;56083;48.774;8.942;2022-08-19T01:44:35;19.50;99.90
69031;DHT22;56083;48.774;8.942;2022-08-19T01:47:02;19.50;99.90
69031;DHT22;56083;48.774;8.942;2022-08-19T01:49:29;19.50;99.90
69031;DHT22;56083;48.774;8.942;2022-08-19T01:51:55;19.50;99.90
69031;DHT22;56083;48.774;8.942;2022-08-19T01:54:23;19.50;99.90
69031;DHT22;56083;48.774;8.942;2022-08-19T01:56:51;19.50;99.90
69031;DHT22;56083;48.774;8.942;2022-08-19T01:59:20;19.40;99.90
69031;DHT22;56083;48.774;8.942;2022-08-19T02:01:46;19.40;99.90
69031;DHT22;56083;48.774;8.942;2022-08-19T02:04:12;19.40;99.90
69031;DHT22;56083;48.774;8.942;2022-08-19T02:06:38;19.40;99.90
69031;DHT22;56083;48.774;8.942;2022-08-19T02:09:06;19.40;99.90
69031;DHT22;56083;48.774;8.942;2022-08-19T02:11:34;19.40;99.90
69031;DHT22;56083;48.774;8.942;2022-08-19T02:14:04;19.40;99.90
69031;DHT22;56083;48.774;8.942;2022-08-19T02:16:31;19.40;99.90
69031;DHT22;56083;48.774;8.942;2022-08-19T02:18:58;19.40;99.90
69031;DHT22;56083;48.774;8.942;2022-08-19T02:21:26;19.30;99.90
69031;DHT22;56083;48.774;8.942;2022-08-19T02:23:52;19.30;99.90
69031;DHT22;56083;48.774;8.942;2022-08-19T02:26:19;19.30;99.90
69031;DHT22;56083;48.774;8.942;2022-08-19T02:28:45;19.30;99.90
69031;DHT22;56083;48.774;8.942;2022-08-19T02:31:17;19.30;99.90
69031;DHT22;56083;48.774;8.942;2022-08-19T02:33:43;19.30;99.90
69031;DHT22;56083;48.774;8.942;2022-08-19T02:36:11;19.20;99.90
69031;DHT22;56083;48.774;8.942;2022-08-19T02:38:38;19.20;99.90
69031;DHT22;56083;48.774;8.942;2022-08-19T02:41:10;19.20;99.90
69031;DHT22;56083;48.774;8.942;2022-08-19T02:43:37;19.20;99.90
69031;DHT22;56083;48.774;8.942;2022-08-19T02:46:17;19.20;99.90
69031;DHT22;56083;48.774;8.942;2022-08-19T02:48:56;19.20;99.90
69031;DHT22;56083;48.774;8.942;2022-08-19T02:51:28;19.10;99.90
69031;DHT22;56083;48.774;8.942;2022-08-19T02:53:54;19.10;99.90
69031;DHT22;56083;48.774;8.942;2022-08-19T02:56:20;19.10;99.90
69031;DHT22;56083;48.774;8.942;2022-08-19T02:58:47;19.10;99.90
69031;DHT22;56083;48.774;8.942;2022-08-19T03:01:34;19.00;99.90
69031;DHT22;56083;48.774;8.942;2022-08-19T03:04:02;19.00;99.90
69031;DHT22;56083;48.774;8.942;2022-08-19T03:06:28;19.00;99.90
69031;DHT22;56083;48.774;8.942;2022-08-19T03:08:54;19.00;99.90
69031;DHT22;56083;48.774;8.942;2022-08-19T03:11:29;19.00;99.90
69031;DHT22;56083;48.774;8.942;2022-08-19T03:13:56;18.90;99.90
69031;DHT22;56083;48.774;8.942;2022-08-19T03:16:24;18.90;99.90
69031;DHT22;56083;48.774;8.942;2022-08-19T03:18:51;18.90;99.90
69031;DHT22;56083;48.774;8.942;2022-08-19T03:21:20;18.90;99.90
69031;DHT22;56083;48.774;8.942;2022-08-19T03:23:46;18.80;99.90
69031;DHT22;56083;48.774;8.942;2022-08-19T03:26:11;18.90;99.90
69031;DHT22;56083;48.774;8.942;2022-08-19T03:28:37;18.90;99.90
69031;DHT22;56083;48.774;8.942;2022-08-19T03:31:04;18.80;99.90
69031;DHT22;56083;48.774;8.942;2022-08-19T03:33:31;18.80;99.90
69031;DHT22;56083;48.774;8.942;2022-08-19T03:36:18;18.80;99.90
69031;DHT22;56083;48.774;8.942;2022-08-19T03:38:48;18.70;99.90
69031;DHT22;56083;48.774;8.942;2022-08-19T03:41:29;18.70;99.90
69031;DHT22;56083;48.774;8.942;2022-08-19T03:43:56;18.70;99.90
69031;DHT22;56083;48.774;8.942;2022-08-19T03:46:28;18.70;99.90
69031;DHT22;56083;48.774;8.942;2022-08-19T03:48:56;18.70;99.90
69031;DHT22;56083;48.774;8.942;2022-08-19T03:51:32;18.60;99.90
69031;DHT22;56083;48.774;8.942;2022-08-19T03:53:59;18.60;99.90
69031;DHT22;56083;48.774;8.942;2022-08-19T03:56:26;18.50;99.90
69031;DHT22;56083;48.774;8.942;2022-08-19T03:58:56;18.50;99.90
69031;DHT22;56083;48.774;8.942;2022-08-19T04:01:24;18.40;99.90
69031;DHT22;56083;48.774;8.942;2022-08-19T04:03:52;18.40;99.90
69031;DHT22;56083;48.774;8.942;2022-08-19T04:06:24;18.40;99.90
69031;DHT22;56083;48.774;8.942;2022-08-19T04:08:53;18.40;99.90
69031;DHT22;56083;48.774;8.942;2022-08-19T04:11:25;18.30;99.90
69031;DHT22;56083;48.774;8.942;2022-08-19T04:13:52;18.30;99.90
69031;DHT22;56083;48.774;8.942;2022-08-19T04:16:19;18.40;99.90
69031;DHT22;56083;48.774;8.942;2022-08-19T04:18:47;18.40;99.90
69031;DHT22;56083;48.774;8.942;2022-08-19T04:21:19;18.40;99.90
69031;DHT22;56083;48.774;8.942;2022-08-19T04:23:45;18.40;99.90
69031;DHT22;56083;48.774;8.942;2022-08-19T04:26:20;18.40;99.90
69031;DHT22;56083;48.774;8.942;2022-08-19T04:28:46;18.40;99.90
69031;DHT22;56083;48.774;8.942;2022-08-19T04:31:22;18.40;99.90
69031;DHT22;56083;48.774;8.942;2022-08-19T04:33:48;18.50;99.90
69031;DHT22;56083;48.774;8.942;2022-08-19T04:36:28;18.50;99.90
69031;DHT22;56083;48.774;8.942;2022-08-19T04:38:59;18.50;99.90
69031;DHT22;56083;48.774;8.942;2022-08-19T04:41:26;18.60;99.90
69031;DHT22;56083;48.774;8.942;2022-08-19T04:44:11;18.60;99.90
69031;DHT22;56083;48.774;8.942;2022-08-19T04:46:37;18.60;99.90
69031;DHT22;56083;48.774;8.942;2022-08-19T04:49:05;18.60;99.90
69031;DHT22;56083;48.774;8.942;2022-08-19T04:51:32;18.60;99.90
69031;DHT22;56083;48.774;8.942;2022-08-19T04:53:58;18.70;99.90
69031;DHT22;56083;48.774;8.942;2022-08-19T04:56:25;18.70;99.90
69031;DHT22;56083;48.774;8.942;2022-08-19T04:58:53;18.70;99.90
69031;DHT22;56083;48.774;8.942;2022-08-19T05:01:25;18.70;99.90
69031;DHT22;56083;48.774;8.942;2022-08-19T05:03:52;18.70;99.90
69031;DHT22;56083;48.774;8.942;2022-08-19T05:06:19;18.70;99.90
69031;DHT22;56083;48.774;8.942;2022-08-19T05:08:46;18.80;99.90
69031;DHT22;56083;48.774;8.942;2022-08-19T05:11:18;18.80;99.90
69031;DHT22;56083;48.774;8.942;2022-08-19T05:13:45;18.80;99.90
69031;DHT22;56083;48.774;8.942;2022-08-19T05:16:12;18.90;99.90
69031;DHT22;56083;48.774;8.942;2022-08-19T05:18:39;18.90;99.90
69031;DHT22;56083;48.774;8.942;2022-08-19T05:21:24;18.90;99.90
69031;DHT22;56083;48.774;8.942;2022-08-19T05:24:09;19.00;99.90
69031;DHT22;56083;48.774;8.942;2022-08-19T05:26:39;19.00;99.90
69031;DHT22;56083;48.774;8.942;2022-08-19T05:29:05;19.00;99.90
69031;DHT22;56083;48.774;8.942;2022-08-19T05:31:33;19.10;99.90
69031;DHT22;56083;48.774;8.942;2022-08-19T05:33:58;19.10;99.90
69031;DHT22;56083;48.774;8.942;2022-08-19T05:36:32;19.10;99.90
69031;DHT22;56083;48.774;8.942;2022-08-19T05:39:00;19.00;99.90
69031;DHT22;56083;48.774;8.942;2022-08-19T05:41:26;19.10;99.90
69031;DHT22;56083;48.774;8.942;2022-08-19T05:44:01;19.10;99.90
69031;DHT22;56083;48.774;8.942;2022-08-19T05:46:27;19.00;99.90
69031;DHT22;56083;48.774;8.942;2022-08-19T05:48:52;19.00;99.90
69031;DHT22;56083;48.774;8.942;2022-08-19T05:51:22;19.00;99.90
69031;DHT22;56083;48.774;8.942;2022-08-19T05:53:48;19.10;99.90
69031;DHT22;56083;48.774;8.942;2022-08-19T05:56:15;19.10;99.90
69031;DHT22;56083;48.774;8.942;2022-08-19T05:58:42;19.10;99.90
69031;DHT22;56083;48.774;8.942;2022-08-19T06:01:12;19.10;99.90
69031;DHT22;56083;48.774;8.942;2022-08-19T06:03:38;19.10;99.90
69031;DHT22;56083;48.774;8.942;2022-08-19T06:06:05;19.00;99.90
69031;DHT22;56083;48.774;8.942;2022-08-19T06:08:31;19.10;99.90
69031;DHT22;56083;48.774;8.942;2022-08-19T06:10:58;19.10;99.90
69031;DHT22;56083;48.774;8.942;2022-08-19T06:13:36;19.10;99.90
69031;DHT22;56083;48.774;8.942;2022-08-19T06:16:02;19.10;99.90
69031;DHT22;56083;48.774;8.942;2022-08-19T06:18:27;19.20;99.90
69031;DHT22;56083;48.774;8.942;2022-08-19T06:20:53;19.20;99.90
69031;DHT22;56083;48.774;8.942;2022-08-19T06:23:19;19.10;99.90
69031;DHT22;56083;48.774;8.942;2022-08-19T06:25:45;19.10;99.90
69031;DHT22;56083;48.774;8.942;2022-08-19T06:28:11;19.20;99.90
69031;DHT22;56083;48.774;8.942;2022-08-19T06:30:37;19.20;99.90
69031;DHT22;56083;48.774;8.942;2022-08-19T06:33:02;19.30;99.90
69031;DHT22;56083;48.774;8.942;2022-08-19T06:35:28;19.30;99.90
69031;DHT22;56083;48.774;8.942;2022-08-19T06:37:55;19.30;99.90
69031;DHT22;56083;48.774;8.942;2022-08-19T06:40:21;19.40;99.90
69031;DHT22;56083;48.774;8.942;2022-08-19T06:42:47;19.40;99.90
69031;DHT22;56083;48.774;8.942;2022-08-19T06:45:13;19.40;99.90
69031;DHT22;56083;48.774;8.942;2022-08-19T06:47:39;19.40;99.90
69031;DHT22;56083;48.774;8.942;2022-08-19T06:50:05;19.40;99.90
69031;DHT22;56083;48.774;8.942;2022-08-19T06:52:33;19.40;99.90
69031;DHT22;56083;48.774;8.942;2022-08-19T06:55:00;19.50;99.90
69031;DHT22;56083;48.774;8.942;2022-08-19T06:57:26;19.50;99.90
69031;DHT22;56083;48.774;8.942;2022-08-19T06:59:53;19.50;99.90
69031;DHT22;56083;48.774;8.942;2022-08-19T07:02:19;19.60;99.90
69031;DHT22;56083;48.774;8.942;2022-08-19T07:04:46;19.70;99.90
69031;DHT22;56083;48.774;8.942;2022-08-19T07:07:14;19.80;99.90
69031;DHT22;56083;48.774;8.942;2022-08-19T07:09:42;19.90;99.90
69031;DHT22;56083;48.774;8.942;2022-08-19T07:12:11;20.00;99.90
69031;DHT22;56083;48.774;8.942;2022-08-19T07:14:37;20.20;99.90
69031;DHT22;56083;48.774;8.942;2022-08-19T07:17:09;20.30;99.90
69031;DHT22;56083;48.774;8.942;2022-08-19T07:19:37;20.40;99.90
69031;DHT22;56083;48.774;8.942;2022-08-19T07:22:04;20.50;99.90
69031;DHT22;56083;48.774;8.942;2022-08-19T07:24:32;20.50;99.90
69031;DHT22;56083;48.774;8.942;2022-08-19T07:27:00;20.60;99.90
69031;DHT22;56083;48.774;8.942;2022-08-19T07:29:29;20.50;99.90
69031;DHT22;56083;48.774;8.942;2022-08-19T07:31:55;20.50;99.90
69031;DHT22;56083;48.774;8.942;2022-08-19T07:34:23;20.40;99.90
69031;DHT22;56083;48.774;8.942;2022-08-19T07:36:49;20.40;99.90
69031;DHT22;56083;48.774;8.942;2022-08-19T07:39:19;20.40;99.90
69031;DHT22;56083;48.774;8.942;2022-08-19T07:41:46;20.50;99.90
69031;DHT22;56083;48.774;8.942;2022-08-19T07:44:13;20.50;99.90
69031;DHT22;56083;48.774;8.942;2022-08-19T07:46:41;20.50;99.90
69031;DHT22;56083;48.774;8.942;2022-08-19T07:49:10;20.50;99.90
69031;DHT22;56083;48.774;8.942;2022-08-19T07:51:47;20.50;99.90
69031;DHT22;56083;48.774;8.942;2022-08-19T07:54:13;20.50;99.90
69031;DHT22;56083;48.774;8.942;2022-08-19T07:56:39;20.60;99.90
69031;DHT22;56083;48.774;8.942;2022-08-19T07:59:05;20.60;99.90
69031;DHT22;56083;48.774;8.942;2022-08-19T08:01:31;20.60;99.90
69031;DHT22;56083;48.774;8.942;2022-08-19T08:03:57;20.60;99.90
69031;DHT22;56083;48.774;8.942;2022-08-19T08:06:42;20.70;99.90
69031;DHT22;56083;48.774;8.942;2022-08-19T08:09:32;20.60;99.90
69031;DHT22;56083;48.774;8.942;2022-08-19T08:12:31;20.50;99.90
69031;DHT22;56083;48.774;8.942;2022-08-19T08:14:59;20.50;99.90
69031;DHT22;56083;48.774;8.942;2022-08-19T08:17:28;20.60;99.90
69031;DHT22;56083;48.774;8.942;2022-08-19T08:19:55;20.60;99.90
69031;DHT22;56083;48.774;8.942;2022-08-19T08:22:22;20.60;99.90
69031;DHT22;56083;48.774;8.942;2022-08-19T08:25:09;20.70;99.90
69031;DHT22;56083;48.774;8.942;2022-08-19T08:27:38;20.80;99.90
69031;DHT22;56083;48.774;8.942;2022-08-19T08:30:06;20.80;99.90
69031;DHT22;56083;48.774;8.942;2022-08-19T08:32:36;20.80;99.90
69031;DHT22;56083;48.774;8.942;2022-08-19T08:35:07;20.80;99.90
69031;DHT22;56083;48.774;8.942;2022-08-19T08:37:33;20.80;99.90
69031;DHT22;56083;48.774;8.942;2022-08-19T08:40:01;20.80;99.90
69031;DHT22;56083;48.774;8.942;2022-08-19T08:42:40;20.90;99.90
69031;DHT22;56083;48.774;8.942;2022-08-19T08:45:14;20.90;99.90
69031;DHT22;56083;48.774;8.942;2022-08-19T08:47:45;21.00;99.90
69031;DHT22;56083;48.774;8.942;2022-08-19T08:50:20;21.00;99.90
69031;DHT22;56083;48.774;8.942;2022-08-19T08:52:51;21.00;99.90
69031;DHT22;56083;48.774;8.942;2022-08-19T08:55:25;20.90;99.90
69031;DHT22;56083;48.774;8.942;2022-08-19T08:58:01;20.90;99.90
69031;DHT22;56083;48.774;8.942;2022-08-19T09:00:31;21.00;99.90
69031;DHT22;56083;48.774;8.942;2022-08-19T09:02:59;21.10;99.90
69031;DHT22;56083;48.774;8.942;2022-08-19T09:08:08;21.60;99.90
69031;DHT22;56083;48.774;8.942;2022-08-19T09:10:49;21.80;99.90
69031;DHT22;56083;48.774;8.942;2022-08-19T09:13:44;21.90;99.90
69031;DHT22;56083;48.774;8.942;2022-08-19T09:16:21;22.10;99.90
69031;DHT22;56083;48.774;8.942;2022-08-19T09:18:55;22.30;99.90
69031;DHT22;56083;48.774;8.942;2022-08-19T09:21:23;22.50;99.90
69031;DHT22;56083;48.774;8.942;2022-08-19T09:23:50;22.40;99.90
69031;DHT22;56083;48.774;8.942;2022-08-19T09:26:19;22.30;99.90
69031;DHT22;56083;48.774;8.942;2022-08-19T09:28:48;22.40;99.90
69031;DHT22;56083;48.774;8.942;2022-08-19T09:31:23;22.30;99.90
69031;DHT22;56083;48.774;8.942;2022-08-19T09:33:49;22.10;99.90
69031;DHT22;56083;48.774;8.942;2022-08-19T09:36:17;22.10;99.90
69031;DHT22;56083;48.774;8.942;2022-08-19T09:38:44;22.00;99.90
69031;DHT22;56083;48.774;8.942;2022-08-19T09:41:13;22.00;99.90
69031;DHT22;56083;48.774;8.942;2022-08-19T09:43:41;21.90;99.90
69031;DHT22;56083;48.774;8.942;2022-08-19T09:46:08;22.00;99.90
69031;DHT22;56083;48.774;8.942;2022-08-19T09:48:38;21.90;99.90
69031;DHT22;56083;48.774;8.942;2022-08-19T09:51:05;21.90;99.90
69031;DHT22;56083;48.774;8.942;2022-08-19T09:53:34;21.90;99.90
69031;DHT22;56083;48.774;8.942;2022-08-19T09:56:00;21.80;99.90
69031;DHT22;56083;48.774;8.942;2022-08-19T09:58:26;21.80;99.90
69031;DHT22;56083;48.774;8.942;2022-08-19T10:00:57;21.80;99.90
69031;DHT22;56083;48.774;8.942;2022-08-19T10:03:25;21.70;99.90
69031;DHT22;56083;48.774;8.942;2022-08-19T10:05:50;21.70;99.90
69031;DHT22;56083;48.774;8.942;2022-08-19T10:08:22;21.80;99.90
69031;DHT22;56083;48.774;8.942;2022-08-19T10:10:48;21.80;99.90
69031;DHT22;56083;48.774;8.942;2022-08-19T10:13:16;21.80;99.90
69031;DHT22;56083;48.774;8.942;2022-08-19T10:15:43;22.00;99.90
69031;DHT22;56083;48.774;8.942;2022-08-19T10:18:09;22.00;99.90
69031;DHT22;56083;48.774;8.942;2022-08-19T10:20:35;22.00;99.90
69031;DHT22;56083;48.774;8.942;2022-08-19T10:23:04;22.20;99.90
69031;DHT22;56083;48.774;8.942;2022-08-19T10:25:29;22.30;99.90
69031;DHT22;56083;48.774;8.942;2022-08-19T10:27:57;22.50;99.90
69031;DHT22;56083;48.774;8.942;2022-08-19T10:30:22;22.70;99.90
69031;DHT22;56083;48.774;8.942;2022-08-19T10:32:48;22.80;99.90
69031;DHT22;56083;48.774;8.942;2022-08-19T10:35:14;22.80;99.90
69031;DHT22;56083;48.774;8.942;2022-08-19T10:37:41;22.90;99.90
69031;DHT22;56083;48.774;8.942;2022-08-19T10:40:08;22.90;99.90
69031;DHT22;56083;48.774;8.942;2022-08-19T10:42:36;22.90;99.90
69031;DHT22;56083;48.774;8.942;2022-08-19T10:45:03;23.10;99.90
69031;DHT22;56083;48.774;8.942;2022-08-19T10:47:29;23.30;99.90
69031;DHT22;56083;48.774;8.942;2022-08-19T10:49:55;23.60;99.90
69031;DHT22;56083;48.774;8.942;2022-08-19T10:52:41;23.80;99.90
69031;DHT22;56083;48.774;8.942;2022-08-19T10:55:08;24.20;99.90
69031;DHT22;56083;48.774;8.942;2022-08-19T10:57:52;24.50;99.90
69031;DHT22;56083;48.774;8.942;2022-08-19T11:00:22;24.70;99.90
69031;DHT22;56083;48.774;8.942;2022-08-19T11:02:48;24.90;99.90
69031;DHT22;56083;48.774;8.942;2022-08-19T11:05:14;25.40;99.90
69031;DHT22;56083;48.774;8.942;2022-08-19T11:07:41;25.70;99.90
69031;DHT22;56083;48.774;8.942;2022-08-19T11:10:11;26.00;99.90
69031;DHT22;56083;48.774;8.942;2022-08-19T11:12:38;25.70;99.90
69031;DHT22;56083;48.774;8.942;2022-08-19T11:15:06;25.30;99.90
69031;DHT22;56083;48.774;8.942;2022-08-19T11:17:36;25.20;99.90
69031;DHT22;56083;48.774;8.942;2022-08-19T11:20:06;25.00;99.90
69031;DHT22;56083;48.774;8.942;2022-08-19T11:22:32;25.00;99.90
69031;DHT22;56083;48.774;8.942;2022-08-19T11:24:57;24.80;99.90
69031;DHT22;56083;48.774;8.942;2022-08-19T11:27:23;24.90;99.90
69031;DHT22;56083;48.774;8.942;2022-08-19T11:29:49;25.00;99.90
69031;DHT22;56083;48.774;8.942;2022-08-19T11:32:14;24.80;99.90
69031;DHT22;56083;48.774;8.942;2022-08-19T11:34:41;24.60;99.90
69031;DHT22;56083;48.774;8.942;2022-08-19T11:37:07;24.60;99.90
69031;DHT22;56083;48.774;8.942;2022-08-19T11:39:34;24.40;99.90
69031;DHT22;56083;48.774;8.942;2022-08-19T11:42:03;24.40;99.90
69031;DHT22;56083;48.774;8.942;2022-08-19T11:44:49;24.30;99.90
69031;DHT22;56083;48.774;8.942;2022-08-19T11:47:15;24.20;99.90
69031;DHT22;56083;48.774;8.942;2022-08-19T11:49:41;24.10;99.90
69031;DHT22;56083;48.774;8.942;2022-08-19T11:52:07;23.90;99.90
69031;DHT22;56083;48.774;8.942;2022-08-19T11:54:33;23.80;99.90
69031;DHT22;56083;48.774;8.942;2022-08-19T11:56:59;23.80;99.90
69031;DHT22;56083;48.774;8.942;2022-08-19T11:59:26;23.70;99.90
69031;DHT22;56083;48.774;8.942;2022-08-19T12:01:52;23.70;99.90
69031;DHT22;56083;48.774;8.942;2022-08-19T12:04:18;23.70;99.90
69031;DHT22;56083;48.774;8.942;2022-08-19T12:06:43;23.80;99.90
69031;DHT22;56083;48.774;8.942;2022-08-19T12:09:10;23.90;99.90
69031;DHT22;56083;48.774;8.942;2022-08-19T12:11:37;24.10;99.90
69031;DHT22;56083;48.774;8.942;2022-08-19T12:14:04;24.40;99.90
69031;DHT22;56083;48.774;8.942;2022-08-19T12:16:31;24.80;99.90
69031;DHT22;56083;48.774;8.942;2022-08-19T12:18:58;25.10;99.90
69031;DHT22;56083;48.774;8.942;2022-08-19T12:21:28;25.50;99.90
69031;DHT22;56083;48.774;8.942;2022-08-19T12:23:56;25.70;99.90
69031;DHT22;56083;48.774;8.942;2022-08-19T12:26:22;26.00;99.90
69031;DHT22;56083;48.774;8.942;2022-08-19T12:28:49;26.30;99.90
69031;DHT22;56083;48.774;8.942;2022-08-19T12:31:15;26.90;99.90
69031;DHT22;56083;48.774;8.942;2022-08-19T12:33:42;27.30;99.90
69031;DHT22;56083;48.774;8.942;2022-08-19T12:36:10;27.60;99.90
69031;DHT22;56083;48.774;8.942;2022-08-19T12:38:38;27.70;99.90
69031;DHT22;56083;48.774;8.942;2022-08-19T12:41:05;28.10;99.90
69031;DHT22;56083;48.774;8.942;2022-08-19T12:43:36;28.90;99.90
69031;DHT22;56083;48.774;8.942;2022-08-19T12:46:02;30.00;99.90
69031;DHT22;56083;48.774;8.942;2022-08-19T12:48:30;30.30;99.90
69031;DHT22;56083;48.774;8.942;2022-08-19T12:50:55;30.40;99.90
69031;DHT22;56083;48.774;8.942;2022-08-19T12:53:22;30.00;99.90
69031;DHT22;56083;48.774;8.942;2022-08-19T12:55:48;29.40;99.90
69031;DHT22;56083;48.774;8.942;2022-08-19T12:58:13;28.80;99.90
69031;DHT22;56083;48.774;8.942;2022-08-19T13:00:39;28.30;99.90
69031;DHT22;56083;48.774;8.942;2022-08-19T13:03:06;28.10;99.90
69031;DHT22;56083;48.774;8.942;2022-08-19T13:05:32;28.10;99.90
69031;DHT22;56083;48.774;8.942;2022-08-19T13:08:01;28.40;99.90
69031;DHT22;56083;48.774;8.942;2022-08-19T13:10:33;28.60;99.90
69031;DHT22;56083;48.774;8.942;2022-08-19T13:13:05;28.40;99.90
69031;DHT22;56083;48.774;8.942;2022-08-19T13:15:37;28.40;99.90
69031;DHT22;56083;48.774;8.942;2022-08-19T13:18:03;28.20;99.90
69031;DHT22;56083;48.774;8.942;2022-08-19T13:20:29;27.90;99.90
69031;DHT22;56083;48.774;8.942;2022-08-19T13:22:55;27.70;99.90
69031;DHT22;56083;48.774;8.942;2022-08-19T13:25:22;27.60;99.90
69031;DHT22;56083;48.774;8.942;2022-08-19T13:27:49;27.10;99.90
69031;DHT22;56083;48.774;8.942;2022-08-19T13:30:16;26.80;99.90
69031;DHT22;56083;48.774;8.942;2022-08-19T13:33:01;26.50;99.90
69031;DHT22;56083;48.774;8.942;2022-08-19T13:35:42;26.30;99.90
69031;DHT22;56083;48.774;8.942;2022-08-19T13:38:08;26.40;99.90
69031;DHT22;56083;48.774;8.942;2022-08-19T13:40:34;26.40;99.90
69031;DHT22;56083;48.774;8.942;2022-08-19T13:43:02;26.40;99.90
69031;DHT22;56083;48.774;8.942;2022-08-19T13:45:29;26.40;99.90
69031;DHT22;56083;48.774;8.942;2022-08-19T13:47:58;26.20;99.90
69031;DHT22;56083;48.774;8.942;2022-08-19T13:50:29;26.10;99.90
69031;DHT22;56083;48.774;8.942;2022-08-19T13:52:56;26.00;99.90
69031;DHT22;56083;48.774;8.942;2022-08-19T13:55:23;25.90;99.90
69031;DHT22;56083;48.774;8.942;2022-08-19T13:58:00;26.00;99.90
69031;DHT22;56083;48.774;8.942;2022-08-19T14:00:32;26.10;99.90
69031;DHT22;56083;48.774;8.942;2022-08-19T14:02:58;26.00;99.90
69031;DHT22;56083;48.774;8.942;2022-08-19T14:05:25;25.90;99.90
69031;DHT22;56083;48.774;8.942;2022-08-19T14:07:52;25.90;99.90
69031;DHT22;56083;48.774;8.942;2022-08-19T14:10:19;25.80;99.90
69031;DHT22;56083;48.774;8.942;2022-08-19T14:12:45;25.70;99.90
69031;DHT22;56083;48.774;8.942;2022-08-19T14:15:12;25.50;99.90
69031;DHT22;56083;48.774;8.942;2022-08-19T14:17:39;25.30;99.90
69031;DHT22;56083;48.774;8.942;2022-08-19T14:20:08;25.20;99.90
69031;DHT22;56083;48.774;8.942;2022-08-19T14:22:39;25.10;99.90
69031;DHT22;56083;48.774;8.942;2022-08-19T14:25:08;25.10;99.90
69031;DHT22;56083;48.774;8.942;2022-08-19T14:27:36;25.10;99.90
69031;DHT22;56083;48.774;8.942;2022-08-19T14:30:07;25.10;99.90
69031;DHT22;56083;48.774;8.942;2022-08-19T14:32:33;25.20;99.90
69031;DHT22;56083;48.774;8.942;2022-08-19T14:35:00;25.10;99.90
69031;DHT22;56083;48.774;8.942;2022-08-19T14:37:25;25.10;99.90
69031;DHT22;56083;48.774;8.942;2022-08-19T14:39:51;25.00;99.90
69031;DHT22;56083;48.774;8.942;2022-08-19T14:42:17;25.00;99.90
69031;DHT22;56083;48.774;8.942;2022-08-19T14:44:43;25.00;99.90
69031;DHT22;56083;48.774;8.942;2022-08-19T14:47:09;25.20;99.90
69031;DHT22;56083;48.774;8.942;2022-08-19T14:49:35;25.20;99.90
69031;DHT22;56083;48.774;8.942;2022-08-19T14:52:01;25.20;99.90
69031;DHT22;56083;48.774;8.942;2022-08-19T14:54:28;25.10;99.90
69031;DHT22;56083;48.774;8.942;2022-08-19T14:56:54;25.10;99.90
69031;DHT22;56083;48.774;8.942;2022-08-19T14:59:19;25.20;99.90
69031;DHT22;56083;48.774;8.942;2022-08-19T15:01:45;25.40;99.90
69031;DHT22;56083;48.774;8.942;2022-08-19T15:04:11;25.50;99.90
69031;DHT22;56083;48.774;8.942;2022-08-19T15:06:37;25.50;99.90
69031;DHT22;56083;48.774;8.942;2022-08-19T15:09:04;25.70;99.90
69031;DHT22;56083;48.774;8.942;2022-08-19T15:11:30;26.00;99.90
69031;DHT22;56083;48.774;8.942;2022-08-19T15:13:58;26.40;99.90
69031;DHT22;56083;48.774;8.942;2022-08-19T15:16:24;27.00;99.90
69031;DHT22;56083;48.774;8.942;2022-08-19T15:18:53;28.00;99.90
69031;DHT22;56083;48.774;8.942;2022-08-19T15:21:20;29.00;99.90
69031;DHT22;56083;48.774;8.942;2022-08-19T15:23:47;29.70;99.90
69031;DHT22;56083;48.774;8.942;2022-08-19T15:26:14;30.30;99.30
69031;DHT22;56083;48.774;8.942;2022-08-19T15:28:40;30.50;97.20
69031;DHT22;56083;48.774;8.942;2022-08-19T15:31:06;30.20;96.50
69031;DHT22;56083;48.774;8.942;2022-08-19T15:33:33;29.80;96.20
69031;DHT22;56083;48.774;8.942;2022-08-19T15:36:05;29.60;96.20
69031;DHT22;56083;48.774;8.942;2022-08-19T15:38:31;29.60;95.60
69031;DHT22;56083;48.774;8.942;2022-08-19T15:41:02;29.30;95.70